ENAN/ANX METAR and TAF weather

Enter ICAO airport designator
Station Type Date Time Source
ENAN METAR 2019/12/13 01:20 UTC NOAA

ENAN 130120Z AUTO 16013KT 9999 NCD 03/M01 Q0984


Station Type Date Time Source
ENAN Decoded METAR 2019/12/13 01:20 UTC NOAA

Andoya, Norway (ENAN) 69-18N 016-09E 14M
Dec 12, 2019 - 08:20 PM EST / 2019.12.13 0120 UTC
Wind: from the SSE (160 degrees) at 15 MPH (13 KT):0
Visibility: greater than 7 mile(s):0
Temperature: 37 F (3 C)
Dew Point: 30 F (-1 C)
Relative Humidity: 74%
Pressure (altimeter): 29.06 in. Hg (0984 hPa)
ob: ENAN 130120Z AUTO 16013KT 9999 NCD 03/M01 Q0984
cycle: 1

Station Type Date Time Source
ENAN TAF 2019/12/12 18:57 UTC NOAA

TAF TAF ENAN 121700Z 1218/1318 15018KT CAVOK

Example: see airport list